Time;durP1;ratioP1;P1;durP2;ratioP2;P2;SDS_P1;SDS_P2;PMS_P1;PMS_P2;Temp;Humidity;BMP_temperature;BMP_pressure;BME280_temperature;BME280_humidity;BME280_pressure;Samples;Min_cycle;Max_cycle;Signal;HPM_P1;HPM_P2
2021/11/18 00:00:37;;;;;;;98.20;53.58;;;;;;;7.04;100.00;101245.44;5011050;28;20038;-68
2021/11/18 00:03:04;;;;;;;96.35;55.50;;;;;;;7.07;100.00;101246.22;5011419;28;20034;-68
2021/11/18 00:05:30;;;;;;;99.07;55.88;;;;;;;7.08;100.00;101238.13;5011145;28;20021;-68
2021/11/18 00:07:57;;;;;;;93.70;55.63;;;;;;;7.07;100.00;101247.94;5011055;28;20033;-66
2021/11/18 00:10:30;;;;;;;96.28;54.20;;;;;;;7.06;100.00;101256.03;5011022;28;20038;-67
2021/11/18 00:12:58;;;;;;;94.57;54.93;;;;;;;7.04;100.00;101242.78;4993066;28;20486;-68
2021/11/18 00:15:26;;;;;;;98.43;55.40;;;;;;;7.04;100.00;101224.13;5010878;28;20150;-68
2021/11/18 00:17:58;;;;;;;94.85;55.65;;;;;;;7.09;100.00;101252.34;5010770;28;20037;-68
2021/11/18 00:20:27;;;;;;;99.93;56.30;;;;;;;7.06;100.00;101250.69;5010895;28;20035;-68
2021/11/18 00:22:53;;;;;;;102.15;55.83;;;;;;;7.04;100.00;101245.44;4993108;28;20025;-67
2021/11/18 00:25:19;;;;;;;105.20;57.60;;;;;;;7.08;100.00;101251.47;5010636;28;20560;-67
2021/11/18 00:27:44;;;;;;;104.38;57.50;;;;;;;7.10;100.00;101256.72;5010532;28;20025;-67
2021/11/18 00:30:11;;;;;;;102.25;57.20;;;;;;;7.02;100.00;101248.31;5010544;28;20038;-68
2021/11/18 00:32:37;;;;;;;98.72;53.50;;;;;;;7.10;100.00;101270.94;5010649;28;20460;-67
2021/11/18 00:35:04;;;;;;;96.93;54.03;;;;;;;7.07;100.00;101261.28;4992613;28;20081;-67
2021/11/18 00:37:30;;;;;;;93.50;53.53;;;;;;;7.07;100.00;101267.56;5010444;28;20116;-67
2021/11/18 00:39:55;;;;;;;91.20;51.28;;;;;;;7.08;100.00;101264.81;5010379;28;20748;-66
2021/11/18 00:42:21;;;;;;;92.00;51.40;;;;;;;7.07;100.00;101258.59;5010627;28;20028;-66
2021/11/18 00:44:46;;;;;;;89.32;50.30;;;;;;;7.07;100.00;101266.63;5010118;28;20040;-66
2021/11/18 00:47:11;;;;;;;83.28;48.83;;;;;;;7.12;100.00;101261.00;5010377;28;20032;-66
2021/11/18 00:49:37;;;;;;;83.93;46.47;;;;;;;7.14;100.00;101258.25;5010004;28;20056;-67
2021/11/18 00:52:03;;;;;;;79.45;44.83;;;;;;;7.14;100.00;101260.94;5010607;28;20079;-68
2021/11/18 00:54:29;;;;;;;83.45;45.92;;;;;;;7.14;100.00;101268.94;5009629;28;20037;-67
2021/11/18 00:56:55;;;;;;;86.43;44.95;;;;;;;7.09;100.00;101260.34;5009881;28;20033;-67
2021/11/18 00:59:20;;;;;;;83.50;44.92;;;;;;;7.15;100.00;101260.00;4992734;28;20030;-68
2021/11/18 01:01:47;;;;;;;78.53;42.88;;;;;;;7.15;100.00;101260.00;5009867;28;20490;-68
2021/11/18 01:04:17;;;;;;;82.68;45.25;;;;;;;7.19;100.00;101277.53;5010366;28;20029;-68
2021/11/18 01:06:43;;;;;;;78.97;45.15;;;;;;;7.22;100.00;101278.19;5009704;28;20368;-66
2021/11/18 01:09:09;;;;;;;77.43;44.83;;;;;;;7.20;100.00;101281.91;4992027;28;20045;-68
2021/11/18 01:11:35;;;;;;;74.45;42.80;;;;;;;7.13;100.00;101261.88;4992140;28;20026;-68
2021/11/18 01:14:03;;;;;;;79.05;44.03;;;;;;;7.17;100.00;101274.97;5009831;28;20433;-67
2021/11/18 01:16:31;;;;;;;78.78;42.30;;;;;;;7.20;100.00;101274.78;5009659;28;20034;-68
2021/11/18 01:18:57;;;;;;;76.40;42.80;;;;;;;7.16;100.00;101267.03;5009483;28;20021;-68
2021/11/18 01:21:23;;;;;;;75.97;42.60;;;;;;;7.24;100.00;101276.31;5009702;28;20032;-67
2021/11/18 01:23:50;;;;;;;73.90;43.38;;;;;;;7.26;100.00;101278.88;5008292;28;20088;-67
2021/11/18 01:26:18;;;;;;;75.80;42.08;;;;;;;7.25;100.00;101269.19;5009858;28;20026;-68
2021/11/18 01:28:44;;;;;;;72.97;42.30;;;;;;;7.24;100.00;101262.09;5009317;28;20050;-67
2021/11/18 01:31:10;;;;;;;78.45;44.10;;;;;;;7.18;100.00;101249.13;5009753;28;20434;-68
2021/11/18 01:33:37;;;;;;;75.28;43.72;;;;;;;7.23;100.00;101261.25;5009393;28;20211;-68
2021/11/18 01:36:03;;;;;;;77.03;42.28;;;;;;;7.24;100.00;101259.44;5009261;28;20065;-68
2021/11/18 01:38:31;;;;;;;80.85;43.65;;;;;;;7.23;100.00;101263.94;5009501;28;20032;-67
2021/11/18 01:41:00;;;;;;;79.05;44.03;;;;;;;7.22;100.00;101266.69;4991463;28;20064;-67
2021/11/18 01:43:29;;;;;;;78.97;43.28;;;;;;;7.17;100.00;101263.41;5009237;28;20071;-67
2021/11/18 01:45:55;;;;;;;79.90;44.67;;;;;;;7.17;100.00;101261.63;4991184;28;20053;-67
2021/11/18 01:48:21;;;;;;;80.68;44.25;;;;;;;7.22;100.00;101261.34;4991630;28;20068;-67
2021/11/18 01:50:50;;;;;;;78.10;42.80;;;;;;;7.27;100.00;101264.59;5008816;28;20547;-68
2021/11/18 01:53:18;;;;;;;79.30;44.58;;;;;;;7.23;100.00;101265.72;5009027;28;20033;-68
2021/11/18 01:55:44;;;;;;;79.07;42.40;;;;;;;7.26;100.00;101271.75;5008884;28;20052;-68
2021/11/18 01:58:11;;;;;;;80.22;43.53;;;;;;;7.26;100.00;101261.09;4991387;28;20036;-68
2021/11/18 02:00:51;;;;;;;75.85;41.35;;;;;;;7.30;100.00;101267.06;5008927;28;20038;-68
2021/11/18 02:03:17;;;;;;;76.57;40.50;;;;;;;7.37;100.00;101277.31;5008907;28;20032;-67
2021/11/18 02:05:57;;;;;;;72.13;38.22;;;;;;;7.37;100.00;101273.75;5008644;28;20398;-67
2021/11/18 02:08:23;;;;;;;65.00;37.28;;;;;;;7.32;100.00;101267.84;5008783;28;20494;-67
2021/11/18 02:10:52;;;;;;;70.00;36.88;;;;;;;7.41;100.00;101283.34;5007331;28;20022;-67
2021/11/18 02:13:21;;;;;;;70.05;36.55;;;;;;;7.39;100.00;101285.22;5008854;28;20470;-67
2021/11/18 02:15:56;;;;;;;62.75;33.75;;;;;;;7.32;100.00;101271.38;5007233;28;20037;-67
2021/11/18 02:18:34;;;;;;;61.03;34.45;;;;;;;7.29;100.00;101273.38;5009228;28;20428;-68
2021/11/18 02:21:07;;;;;;;58.53;31.98;;;;;;;7.33;100.00;101277.56;5008478;28;20096;-67
2021/11/18 02:23:36;;;;;;;57.58;34.40;;;;;;;7.33;100.00;101282.91;5008770;28;20028;-68
2021/11/18 02:26:03;;;;;;;55.28;31.25;;;;;;;7.31;100.00;101282.13;5008530;28;20501;-68
2021/11/18 02:28:34;;;;;;;62.20;32.63;;;;;;;7.32;100.00;101275.88;5008663;28;20479;-67
2021/11/18 02:31:02;;;;;;;54.08;30.83;;;;;;;7.29;100.00;101263.56;5008509;28;20450;-67
2021/11/18 02:33:27;;;;;;;63.83;32.67;;;;;;;7.29;100.00;101268.03;5008605;28;20359;-68
2021/11/18 02:35:56;;;;;;;57.47;30.42;;;;;;;7.27;100.00;101264.59;5008499;28;20088;-68
2021/11/18 02:38:22;;;;;;;53.13;30.15;;;;;;;7.26;100.00;101262.88;5008576;28;20026;-67
2021/11/18 02:40:48;;;;;;;57.17;29.85;;;;;;;7.31;100.00;101279.47;5008291;28;20033;-67
2021/11/18 02:43:17;;;;;;;52.80;30.73;;;;;;;7.24;100.00;101257.63;5008544;28;20030;-68
2021/11/18 02:45:47;;;;;;;59.40;30.85;;;;;;;7.34;100.00;101274.81;5008297;28;20029;-68
2021/11/18 02:48:15;;;;;;;53.78;30.60;;;;;;;7.26;100.00;101263.75;5008538;28;20029;-68
2021/11/18 02:50:43;;;;;;;51.78;30.30;;;;;;;7.34;100.00;101280.16;5008208;28;20041;-68
2021/11/18 02:53:09;;;;;;;50.17;28.65;;;;;;;7.33;99.93;101281.09;5008264;28;20068;-67
2021/11/18 02:55:39;;;;;;;47.38;26.83;;;;;;;7.29;99.77;101276.03;5008420;28;20030;-68
2021/11/18 02:58:05;;;;;;;48.42;27.92;;;;;;;7.30;100.00;101270.63;5008545;28;20068;-67
2021/11/18 03:00:53;;;;;;;48.53;26.95;;;;;;;7.29;99.06;101274.25;5008354;28;20044;-68
2021/11/18 03:03:19;;;;;;;44.10;24.92;;;;;;;7.20;98.79;101261.44;5008055;28;20041;-66
2021/11/18 03:05:46;;;;;;;48.75;26.35;;;;;;;7.20;98.82;101258.78;5007977;28;20367;-68
2021/11/18 03:08:11;;;;;;;48.00;26.63;;;;;;;7.23;99.23;101274.59;5008660;28;20470;-67
2021/11/18 03:10:37;;;;;;;48.13;26.10;;;;;;;7.24;98.24;101270.97;5006994;28;20037;-67
2021/11/18 03:13:04;;;;;;;49.00;25.88;;;;;;;7.36;97.34;101298.75;5008080;28;20018;-66
2021/11/18 03:15:30;;;;;;;45.85;25.40;;;;;;;7.26;98.32;101273.56;4990575;28;20072;-67
2021/11/18 03:17:56;;;;;;;45.08;24.90;;;;;;;7.30;97.39;101296.44;5008996;28;20025;-67
2021/11/18 03:20:24;;;;;;;44.03;23.92;;;;;;;7.30;98.09;101288.41;5011872;28;20033;-68
2021/11/18 03:22:51;;;;;;;40.95;23.80;;;;;;;7.21;98.08;101275.63;5011887;28;20451;-68
2021/11/18 03:25:20;;;;;;;39.67;21.95;;;;;;;7.27;96.71;101284.13;5009687;28;20030;-68
2021/11/18 03:27:46;;;;;;;40.10;22.67;;;;;;;7.22;96.47;101278.19;5011712;28;20034;-68
2021/11/18 03:30:15;;;;;;;39.65;21.38;;;;;;;7.26;96.23;101285.09;5011654;28;20434;-68
2021/11/18 03:32:41;;;;;;;36.85;21.67;;;;;;;7.29;96.02;101289.38;5010067;28;20080;-67
2021/11/18 03:35:08;;;;;;;41.88;21.52;;;;;;;7.26;96.60;101286.91;5011589;28;20050;-68
2021/11/18 03:37:33;;;;;;;34.03;20.27;;;;;;;7.26;96.17;101284.22;5010278;28;20471;-68
2021/11/18 03:39:59;;;;;;;34.85;19.50;;;;;;;7.27;95.95;101286.81;5011917;28;20223;-67
2021/11/18 03:42:24;;;;;;;34.30;19.10;;;;;;;7.28;95.96;101287.69;5011415;28;20030;-67
2021/11/18 03:44:49;;;;;;;35.83;20.52;;;;;;;7.27;95.57;101280.59;5011450;28;20075;-67
2021/11/18 03:47:16;;;;;;;31.17;18.45;;;;;;;7.23;96.14;101276.41;5011377;28;20079;-68
2021/11/18 03:49:43;;;;;;;34.83;19.20;;;;;;;7.24;95.48;101275.44;4993360;28;20033;-68
2021/11/18 03:52:11;;;;;;;37.72;20.42;;;;;;;7.25;95.16;101277.19;5011451;28;20030;-67
2021/11/18 03:54:41;;;;;;;34.97;19.45;;;;;;;7.26;95.50;101282.44;5011258;28;20030;-68
2021/11/18 03:57:07;;;;;;;31.70;18.55;;;;;;;7.20;95.03;101276.56;5011333;28;20060;-68
2021/11/18 03:59:36;;;;;;;32.65;19.05;;;;;;;7.15;95.09;101258.16;5011529;28;20024;-68
2021/11/18 04:02:02;;;;;;;32.60;18.92;;;;;;;7.18;95.04;101276.66;5009678;28;20034;-68
2021/11/18 04:04:34;;;;;;;32.53;18.15;;;;;;;7.22;95.48;101280.88;5010127;28;20021;-68
2021/11/18 04:06:59;;;;;;;32.70;17.73;;;;;;;7.18;95.28;101284.66;5011021;28;20636;-67
2021/11/18 04:09:25;;;;;;;32.08;17.85;;;;;;;7.16;94.70;101280.38;5011004;28;20113;-67
2021/11/18 04:11:53;;;;;;;30.23;18.30;;;;;;;7.19;95.32;101298.88;5010661;28;20104;-68
2021/11/18 04:14:19;;;;;;;34.40;18.10;;;;;;;7.22;94.09;101302.22;5010818;28;20204;-68
2021/11/18 04:16:45;;;;;;;31.23;17.52;;;;;;;7.19;94.89;101289.03;5010605;28;20033;-67
2021/11/18 04:19:12;;;;;;;29.67;17.83;;;;;;;7.20;94.40;101296.13;5010860;28;20108;-68
2021/11/18 04:21:40;;;;;;;26.77;16.65;;;;;;;7.22;94.48;101302.22;5010858;28;20045;-68
2021/11/18 04:24:08;;;;;;;27.20;16.60;;;;;;;7.12;93.78;101277.00;5010720;28;20113;-67
2021/11/18 04:26:34;;;;;;;29.50;16.02;;;;;;;7.22;93.70;101304.88;5010781;28;20464;-67
2021/11/18 04:28:59;;;;;;;28.98;16.90;;;;;;;7.26;93.43;101298.44;5010338;28;20025;-68
2021/11/18 04:31:26;;;;;;;31.08;17.75;;;;;;;7.19;93.23;101290.88;5012602;28;20068;-67
2021/11/18 04:33:52;;;;;;;25.55;15.48;;;;;;;7.25;93.07;101304.69;5011453;28;20047;-67
2021/11/18 04:36:20;;;;;;;27.02;16.35;;;;;;;7.29;92.71;101300.94;4993727;28;20413;-68
2021/11/18 04:38:46;;;;;;;29.67;17.45;;;;;;;7.25;92.22;101288.69;5016894;28;20048;-68
2021/11/18 04:41:14;;;;;;;30.70;17.63;;;;;;;7.29;92.31;101308.06;5015348;28;20026;-68
2021/11/18 04:43:40;;;;;;;27.30;16.98;;;;;;;7.25;92.92;101310.03;5013687;28;20032;-68
2021/11/18 04:46:09;;;;;;;28.45;16.80;;;;;;;7.22;93.35;101304.88;5015063;28;20033;-67
2021/11/18 04:48:36;;;;;;;27.05;16.63;;;;;;;7.18;93.67;101297.13;5014347;28;20092;-66
2021/11/18 04:51:03;;;;;;;29.65;16.52;;;;;;;7.25;93.31;101303.88;5013190;28;20032;-67
2021/11/18 04:53:29;;;;;;;29.08;16.38;;;;;;;7.24;93.34;101307.44;5015091;28;20033;-68
2021/11/18 04:55:55;;;;;;;29.25;16.85;;;;;;;7.27;92.93;101304.59;5013710;28;20068;-68
2021/11/18 04:58:22;;;;;;;35.85;18.17;;;;;;;7.28;92.58;101309.03;5009498;28;20453;-67
2021/11/18 05:00:51;;;;;;;29.48;16.95;;;;;;;7.28;93.08;101311.69;5010055;28;20025;-68
2021/11/18 05:03:18;;;;;;;29.60;17.10;;;;;;;7.22;93.45;101307.53;5008684;28;20038;-66
2021/11/18 05:05:45;;;;;;;35.17;17.52;;;;;;;7.30;93.34;101315.09;5009754;28;20037;-67
2021/11/18 05:08:12;;;;;;;31.70;17.05;;;;;;;7.24;93.79;101323.47;5010077;28;20234;-68
2021/11/18 05:10:39;;;;;;;31.67;18.08;;;;;;;7.19;93.89;101322.88;5010100;28;20033;-67
2021/11/18 05:13:04;;;;;;;32.67;18.95;;;;;;;7.19;94.17;101322.88;5009602;28;20026;-67
2021/11/18 05:15:34;;;;;;;35.15;20.05;;;;;;;7.15;94.41;101321.34;5008797;28;20500;-68
2021/11/18 05:18:00;;;;;;;35.13;18.40;;;;;;;7.22;94.70;101333.38;5009788;28;20033;-67
2021/11/18 05:20:26;;;;;;;30.95;18.15;;;;;;;7.21;94.42;101340.50;5009906;28;20014;-68
2021/11/18 05:22:53;;;;;;;33.38;18.75;;;;;;;7.16;95.31;101329.22;5009557;28;20068;-67
2021/11/18 05:25:23;;;;;;;34.85;20.38;;;;;;;7.27;94.64;101340.16;5009487;28;20344;-67
2021/11/18 05:27:48;;;;;;;31.00;18.95;;;;;;;7.19;94.66;101323.72;5008060;28;20499;-67
2021/11/18 05:30:14;;;;;;;35.97;21.48;;;;;;;7.26;95.26;101338.47;5009365;28;20034;-68
2021/11/18 05:32:41;;;;;;;35.55;20.08;;;;;;;7.27;94.70;101333.97;5009473;28;20032;-68
2021/11/18 05:35:07;;;;;;;31.90;19.63;;;;;;;7.17;95.82;101336.31;5009399;28;20052;-67
2021/11/18 05:37:33;;;;;;;31.60;18.63;;;;;;;7.24;95.99;101342.13;5009602;28;20033;-67
2021/11/18 05:39:58;;;;;;;34.67;19.00;;;;;;;7.19;95.77;101338.91;5008014;28;20402;-67
2021/11/18 05:42:24;;;;;;;40.58;19.25;;;;;;;7.23;95.12;101335.97;5007556;28;20114;-66
2021/11/18 05:44:50;;;;;;;34.67;18.38;;;;;;;7.25;95.71;101341.22;5009235;28;20494;-68
2021/11/18 05:47:19;;;;;;;32.60;18.00;;;;;;;7.29;95.29;101343.63;5009430;28;20026;-66
2021/11/18 05:49:45;;;;;;;32.25;18.95;;;;;;;7.31;95.00;101338.16;5008796;28;20042;-68
2021/11/18 05:52:12;;;;;;;31.60;18.75;;;;;;;7.27;95.84;101339.28;5009179;28;20109;-68
2021/11/18 05:54:38;;;;;;;31.63;18.20;;;;;;;7.27;96.03;101336.63;5009002;28;20060;-68
2021/11/18 05:57:04;;;;;;;32.78;19.05;;;;;;;7.22;96.05;101333.38;5006795;28;20054;-68
2021/11/18 05:59:30;;;;;;;41.83;21.13;;;;;;;7.29;96.09;101353.41;5009339;28;20029;-66
2021/11/18 06:01:56;;;;;;;37.20;21.13;;;;;;;7.25;96.25;101341.22;5009035;28;20368;-68
2021/11/18 06:04:22;;;;;;;34.28;19.88;;;;;;;7.30;96.58;101355.13;5009174;28;20040;-68
2021/11/18 06:06:47;;;;;;;34.15;18.50;;;;;;;7.27;96.63;101356.19;5008983;28;20061;-68
2021/11/18 06:09:13;;;;;;;32.53;19.35;;;;;;;7.31;96.57;101371.06;5008993;28;20032;-68
2021/11/18 06:11:40;;;;;;;36.08;19.80;;;;;;;7.27;96.33;101363.31;5008935;28;20390;-68
2021/11/18 06:14:06;;;;;;;35.03;19.95;;;;;;;7.32;95.80;101364.75;5009321;28;20352;-67
2021/11/18 06:16:33;;;;;;;32.42;19.30;;;;;;;7.40;95.07;101373.19;5009548;28;20022;-70
2021/11/18 06:19:01;;;;;;;31.02;18.05;;;;;;;7.37;95.56;101369.84;5009790;28;20032;-70
2021/11/18 06:21:32;;;;;;;29.15;17.58;;;;;;;7.44;95.38;101380.06;5009704;28;20088;-71
2021/11/18 06:23:58;;;;;;;27.80;17.05;;;;;;;7.43;95.18;101377.50;4991967;28;20525;-70
2021/11/18 06:26:27;;;;;;;28.27;17.02;;;;;;;7.37;95.69;101377.84;5009972;28;20038;-72
2021/11/18 06:28:57;;;;;;;27.50;16.52;;;;;;;7.38;95.30;101384.91;5008120;28;20044;-71
2021/11/18 06:31:23;;;;;;;29.33;17.88;;;;;;;7.38;96.01;101390.25;5009512;28;20077;-70
2021/11/18 06:33:49;;;;;;;28.60;17.92;;;;;;;7.42;95.26;101397.13;5009334;28;20494;-70
2021/11/18 06:36:16;;;;;;;32.10;17.92;;;;;;;7.44;95.15;101389.88;5007343;28;20117;-71
2021/11/18 06:38:44;;;;;;;28.40;16.38;;;;;;;7.50;94.81;101397.53;5009485;28;20034;-69
2021/11/18 06:41:11;;;;;;;25.75;16.30;;;;;;;7.55;94.46;101395.47;5009948;28;20030;-71
2021/11/18 06:43:38;;;;;;;30.33;17.30;;;;;;;7.59;94.47;101397.88;5008286;28;20137;-70
2021/11/18 06:46:04;;;;;;;27.90;16.35;;;;;;;7.49;94.86;101386.00;5009614;28;20398;-70
2021/11/18 06:48:30;;;;;;;28.75;16.00;;;;;;;7.65;93.47;101399.31;5010410;28;20036;-70
2021/11/18 06:51:06;;;;;;;29.77;16.80;;;;;;;7.59;94.43;101395.22;4992680;28;20482;-70
2021/11/18 06:53:33;;;;;;;27.20;15.98;;;;;;;7.56;94.17;101390.03;4994187;28;20022;-70
2021/11/18 06:55:59;;;;;;;27.23;16.25;;;;;;;7.55;94.59;101395.47;5013749;28;20068;-71
2021/11/18 06:58:25;;;;;;;28.67;16.85;;;;;;;7.56;94.73;101407.84;5012272;28;20509;-71
2021/11/18 07:00:51;;;;;;;25.95;15.25;;;;;;;7.56;94.64;101397.19;5011682;28;20029;-71
2021/11/18 07:03:18;;;;;;;24.02;15.75;;;;;;;7.68;93.76;101409.81;5011719;28;20022;-71
2021/11/18 07:05:43;;;;;;;26.67;15.70;;;;;;;7.66;93.86;101407.25;5012282;28;20401;-71
2021/11/18 07:08:09;;;;;;;25.35;15.45;;;;;;;7.64;93.97;101413.63;5011133;28;20053;-71
2021/11/18 07:10:38;;;;;;;27.15;16.30;;;;;;;7.62;94.28;101410.19;5012087;28;20471;-70
2021/11/18 07:13:04;;;;;;;25.45;15.02;;;;;;;7.63;93.92;101415.44;4994120;28;20113;-70
2021/11/18 07:15:31;;;;;;;26.08;15.60;;;;;;;7.59;94.06;101405.88;5012304;28;20057;-70
2021/11/18 07:17:58;;;;;;;22.55;14.93;;;;;;;7.63;93.82;101414.56;5011875;28;20069;-70
2021/11/18 07:20:25;;;;;;;22.67;15.02;;;;;;;7.60;93.68;101398.72;5012087;28;20452;-70
2021/11/18 07:22:52;;;;;;;24.17;14.23;;;;;;;7.77;93.42;101420.81;5010405;28;20394;-72
2021/11/18 07:25:22;;;;;;;28.73;16.10;;;;;;;7.72;93.40;101408.69;5011847;28;20041;-69
2021/11/18 07:27:49;;;;;;;23.35;15.25;;;;;;;7.75;92.52;101408.50;5011957;28;20034;-71
2021/11/18 07:30:16;;;;;;;22.75;14.25;;;;;;;7.80;92.59;101415.28;5010260;28;20060;-71
2021/11/18 07:32:43;;;;;;;24.25;15.35;;;;;;;7.79;93.10;101424.25;5011645;28;20466;-71
2021/11/18 07:35:08;;;;;;;23.33;15.65;;;;;;;7.72;92.97;101419.38;5010335;28;20085;-71
2021/11/18 07:37:34;;;;;;;27.05;16.50;;;;;;;7.71;93.68;101423.00;5013320;28;20076;-70
2021/11/18 07:40:02;;;;;;;25.52;16.40;;;;;;;7.75;92.82;101422.72;4994048;28;20022;-71
2021/11/18 07:42:27;;;;;;;27.90;16.25;;;;;;;7.77;93.12;101427.97;4993855;28;20030;-71
2021/11/18 07:44:53;;;;;;;26.42;15.93;;;;;;;7.84;92.35;101429.34;5011184;28;20236;-70
2021/11/18 07:47:18;;;;;;;25.35;15.55;;;;;;;7.79;92.25;101424.25;5011794;28;20475;-71
2021/11/18 07:49:43;;;;;;;22.88;14.88;;;;;;;7.84;91.93;101430.19;5011205;28;20041;-70
2021/11/18 07:52:09;;;;;;;21.88;14.52;;;;;;;7.81;92.64;101435.72;5011741;28;20087;-71
2021/11/18 07:54:35;;;;;;;22.42;14.50;;;;;;;7.85;92.59;101441.72;5011271;28;20029;-71
2021/11/18 07:57:01;;;;;;;23.80;14.75;;;;;;;7.82;93.35;101436.56;5011098;28;20034;-70
2021/11/18 07:59:27;;;;;;;22.52;15.25;;;;;;;7.81;93.64;101434.84;5010960;28;20029;-71
2021/11/18 08:01:53;;;;;;;25.52;14.90;;;;;;;7.82;93.78;101433.91;5010966;28;20361;-71
2021/11/18 08:04:19;;;;;;;23.80;15.13;;;;;;;7.91;91.96;101434.22;5008907;28;20184;-71
2021/11/18 08:06:45;;;;;;;22.98;14.30;;;;;;;8.03;91.66;101436.16;5010989;28;20034;-71
2021/11/18 08:09:11;;;;;;;23.02;14.45;;;;;;;7.96;91.96;101434.81;5011102;28;20121;-71
2021/11/18 08:11:40;;;;;;;23.02;14.60;;;;;;;8.05;90.89;101434.25;5010921;28;20079;-71
2021/11/18 08:14:07;;;;;;;21.65;13.65;;;;;;;8.03;91.23;101438.00;5010573;28;20030;-71
2021/11/18 08:16:33;;;;;;;22.50;14.82;;;;;;;8.06;91.30;101438.66;5011139;28;20045;-71
2021/11/18 08:18:59;;;;;;;22.85;13.98;;;;;;;8.07;91.79;101450.19;5009419;28;20022;-71
2021/11/18 08:21:26;;;;;;;23.48;14.38;;;;;;;8.03;91.83;101449.50;5010728;28;20387;-71
2021/11/18 08:23:52;;;;;;;25.58;14.98;;;;;;;8.06;91.01;101432.47;5010542;28;20030;-71
2021/11/18 08:26:19;;;;;;;22.50;13.63;;;;;;;8.18;91.13;101439.72;5010693;28;20106;-71
2021/11/18 08:28:45;;;;;;;24.63;16.10;;;;;;;8.21;90.43;101435.06;4992881;28;20045;-71
2021/11/18 08:31:14;;;;;;;23.23;14.38;;;;;;;8.22;91.50;101449.34;5010782;28;20034;-71
2021/11/18 08:33:40;;;;;;;24.30;15.52;;;;;;;8.27;91.48;101437.41;5010521;28;20613;-70
2021/11/18 08:36:06;;;;;;;21.25;14.48;;;;;;;8.42;89.71;101441.78;5010532;28;20394;-70
2021/11/18 08:38:31;;;;;;;21.73;14.52;;;;;;;8.42;90.07;101446.31;5010585;28;20030;-70
2021/11/18 08:41:08;;;;;;;22.65;15.23;;;;;;;8.69;88.15;101457.97;4992750;28;20128;-71
2021/11/18 08:43:37;;;;;;;22.63;13.85;;;;;;;8.57;87.00;101426.63;5010616;28;20038;-71
2021/11/18 08:46:05;;;;;;;22.80;13.95;;;;;;;8.71;87.36;101451.56;5010329;28;20497;-71
2021/11/18 08:48:31;;;;;;;22.95;14.82;;;;;;;8.76;87.30;101456.63;5010338;28;20462;-71
2021/11/18 08:50:58;;;;;;;22.55;13.95;;;;;;;8.90;85.63;101460.16;5010194;28;20053;-71
2021/11/18 08:53:29;;;;;;;20.10;14.13;;;;;;;9.04;84.57;101470.00;5010240;28;20079;-71
2021/11/18 08:55:57;;;;;;;20.35;13.77;;;;;;;8.90;85.16;101462.84;5009749;28;20423;-71
2021/11/18 08:58:26;;;;;;;21.77;14.55;;;;;;;8.89;86.31;101466.47;4992602;28;20026;-71
2021/11/18 09:00:58;;;;;;;20.85;13.88;;;;;;;9.14;80.55;101465.78;4992305;28;20037;-71
2021/11/18 09:03:27;;;;;;;23.45;14.43;;;;;;;9.21;80.46;101469.78;5008814;28;20022;-71
2021/11/18 09:05:53;;;;;;;18.45;12.20;;;;;;;9.09;80.96;101467.88;4992185;28;20383;-71
2021/11/18 09:08:20;;;;;;;20.33;12.75;;;;;;;9.06;80.70;101465.38;5009761;28;20046;-71
2021/11/18 09:10:47;;;;;;;18.67;12.95;;;;;;;9.06;81.46;101474.28;5008495;28;20488;-71
2021/11/18 09:13:13;;;;;;;20.90;13.52;;;;;;;9.07;82.10;101467.13;4984965;28;20030;-71
2021/11/18 09:15:39;;;;;;;22.10;14.18;;;;;;;9.13;81.98;101477.47;5009777;28;20490;-72
2021/11/18 09:18:07;;;;;;;18.98;13.75;;;;;;;9.20;81.51;101473.44;5009611;28;20022;-72
2021/11/18 09:20:35;;;;;;;17.90;12.90;;;;;;;9.33;79.94;101471.69;5009772;28;20478;-71
2021/11/18 09:23:00;;;;;;;17.92;12.68;;;;;;;9.38;79.49;101472.22;5009414;28;20057;-71
2021/11/18 09:25:30;;;;;;;18.52;12.63;;;;;;;9.40;78.37;101472.13;5008428;28;20481;-71
2021/11/18 09:27:56;;;;;;;19.40;12.35;;;;;;;9.44;77.15;101469.16;5009494;28;20394;-71
2021/11/18 09:30:38;;;;;;;16.77;12.32;;;;;;;9.62;75.07;101476.00;5009429;28;20038;-71
2021/11/18 09:33:07;;;;;;;21.92;13.20;;;;;;;9.62;75.93;101478.69;5009487;28;20336;-71
2021/11/18 09:35:39;;;;;;;26.08;14.77;;;;;;;9.59;76.87;101480.69;5009308;28;20410;-71
2021/11/18 09:38:06;;;;;;;18.60;12.13;;;;;;;9.66;75.99;101477.53;5009416;28;20034;-71
2021/11/18 09:40:50;;;;;;;19.52;12.68;;;;;;;9.72;75.10;101470.88;5008117;28;20091;-71
2021/11/18 09:43:33;;;;;;;18.70;13.18;;;;;;;9.76;74.96;101475.94;5009335;28;20022;-71
2021/11/18 09:46:07;;;;;;;21.77;13.93;;;;;;;9.75;75.59;101468.00;5009039;28;20037;-71
2021/11/18 09:48:33;;;;;;;;;;;;;;;9.78;75.29;101467.81;5009608;28;20025;-71
2021/11/18 09:51:15;;;;;;;20.63;12.65;;;;;;;9.82;75.02;101458.59;5009126;28;19920;-71
2021/11/18 09:54:00;;;;;;;18.13;13.02;;;;;;;9.94;74.21;101461.34;5009217;28;20433;-71
2021/11/18 09:56:40;;;;;;;20.98;13.40;;;;;;;9.94;73.98;101450.63;5009252;28;20030;-71
2021/11/18 09:59:45;;;;;;;17.75;12.35;;;;;;;10.02;73.60;101460.81;5007742;28;20022;-71
2021/11/18 10:03:01;;;;;;;19.23;12.55;;;;;;;10.08;73.53;101460.44;5009345;28;20026;-71
2021/11/18 10:05:50;;;;;;;16.23;11.43;;;;;;;10.18;72.38;101459.72;4975537;28;20044;-71
2021/11/18 10:08:19;;;;;;;19.63;12.63;;;;;;;10.24;71.95;101464.66;4959190;28;20038;-71
2021/11/18 10:10:54;;;;;;;18.05;12.20;;;;;;;10.35;71.51;101459.41;5008612;28;20033;-71
2021/11/18 10:13:32;;;;;;;19.20;11.77;;;;;;;10.65;67.67;101451.94;5009016;28;20470;-71
2021/11/18 10:16:00;;;;;;;17.20;12.65;;;;;;;10.56;68.55;101454.38;5008627;28;20033;-71
2021/11/18 10:18:36;;;;;;;16.83;11.85;;;;;;;10.47;69.17;101450.53;4991240;28;20065;-71
2021/11/18 10:21:18;;;;;;;21.02;12.60;;;;;;;10.42;70.37;101446.44;5008457;28;20044;-71
2021/11/18 10:23:46;;;;;;;19.83;13.55;;;;;;;10.39;70.38;101439.47;5006451;28;20045;-71
2021/11/18 10:26:22;;;;;;;21.15;13.40;;;;;;;10.36;71.02;101431.66;5007480;28;20498;-71
2021/11/18 10:29:08;;;;;;;20.60;13.30;;;;;;;10.37;71.19;101428.00;5006747;28;20037;-71
2021/11/18 10:31:49;;;;;;;21.38;14.43;;;;;;;10.42;71.34;101431.19;5007093;28;20049;-71
2021/11/18 10:34:22;;;;;;;21.73;14.35;;;;;;;10.50;70.21;101434.22;5008787;28;20042;-71
2021/11/18 10:36:53;;;;;;;20.58;13.88;;;;;;;10.54;69.25;101430.34;5008325;28;20075;-71
2021/11/18 10:39:39;;;;;;;20.40;13.10;;;;;;;10.58;69.08;101423.78;5008620;28;20364;-71
2021/11/18 10:42:21;;;;;;;20.73;13.32;;;;;;;10.58;69.35;101420.28;5008170;28;20026;-71
2021/11/18 10:44:54;;;;;;;18.58;13.13;;;;;;;10.61;69.07;101422.75;5006953;28;20022;-71
2021/11/18 10:47:25;;;;;;;16.98;12.05;;;;;;;10.66;69.29;101425.94;5007197;28;20473;-71
2021/11/18 10:50:10;;;;;;;21.55;12.55;;;;;;;10.66;68.39;101429.50;5008511;28;20030;-71
2021/11/18 10:52:38;;;;;;;18.73;12.63;;;;;;;10.63;68.89;101420.78;5009106;28;20034;-71
2021/11/18 10:55:15;;;;;;;17.35;11.63;;;;;;;10.74;67.53;101411.00;5009544;28;20084;-71
2021/11/18 10:58:09;;;;;;;22.70;13.65;;;;;;;10.98;63.94;101406.59;5009751;28;20034;-71
2021/11/18 11:00:39;;;;;;;19.70;13.15;;;;;;;10.82;65.31;101413.16;5009691;28;20018;-72
2021/11/18 11:03:33;;;;;;;22.10;13.60;;;;;;;10.73;66.47;101403.06;5009464;28;20018;-71
2021/11/18 11:06:19;;;;;;;19.30;12.27;;;;;;;10.79;65.40;101405.31;5009415;28;20429;-72
2021/11/18 11:08:52;;;;;;;19.30;11.90;;;;;;;10.77;66.32;101405.44;4991631;28;20483;-71
2021/11/18 11:11:30;;;;;;;18.60;12.68;;;;;;;10.76;66.61;101406.41;4991884;28;20387;-72
2021/11/18 11:13:58;;;;;;;21.38;13.18;;;;;;;10.72;67.45;101394.19;4991571;28;20025;-72
2021/11/18 11:16:45;;;;;;;18.50;12.77;;;;;;;10.72;67.76;101396.88;5009356;28;20061;-72
2021/11/18 11:19:59;;;;;;;18.73;11.93;;;;;;;10.82;66.59;101392.56;5007801;28;20088;-72
2021/11/18 11:22:53;;;;;;;20.40;12.85;;;;;;;10.79;66.42;101395.47;4994388;28;20536;-72